createdAt,value
2023-04-30T00:00:11.633Z,1022.04
2023-04-30T00:01:11.808Z,1022.06
2023-04-30T00:02:12.011Z,1022.07
2023-04-30T00:03:12.212Z,1022.09
2023-04-30T00:04:12.354Z,1022.07
2023-04-30T00:05:12.499Z,1022.08
2023-04-30T00:06:12.677Z,1022.08
2023-04-30T00:07:12.838Z,1022.11
2023-04-30T00:08:13.008Z,1022.08
2023-04-30T00:09:13.183Z,1022.12
2023-04-30T00:10:13.359Z,1022.12
2023-04-30T00:11:13.516Z,1022.11
2023-04-30T00:12:13.702Z,1022.09
2023-04-30T00:13:13.858Z,1022.15
2023-04-30T00:14:14.044Z,1022.14
2023-04-30T00:15:14.234Z,1022.15
2023-04-30T00:16:14.458Z,1022.11
2023-04-30T00:17:14.587Z,1022.13
2023-04-30T00:18:14.755Z,1022.12
2023-04-30T00:19:14.950Z,1022.18
2023-04-30T00:20:15.110Z,1022.25
2023-04-30T00:21:15.280Z,1022.24
2023-04-30T00:22:15.458Z,1022.28
2023-04-30T00:23:15.628Z,1022.23
2023-04-30T00:24:15.834Z,1022.22
2023-04-30T00:25:15.991Z,1022.25
2023-04-30T00:26:16.159Z,1022.27
2023-04-30T00:27:16.332Z,1022.28
2023-04-30T00:28:16.510Z,1022.26
2023-04-30T00:29:16.750Z,1022.28
2023-04-30T00:30:16.863Z,1022.24
2023-04-30T00:31:17.025Z,1022.28
2023-04-30T00:32:17.232Z,1022.26
2023-04-30T00:33:17.384Z,1022.22
2023-04-30T00:34:17.563Z,1022.30
2023-04-30T00:35:17.735Z,1022.30
2023-04-30T00:36:17.901Z,1022.32
2023-04-30T00:37:18.088Z,1022.35
2023-04-30T00:38:18.254Z,1022.37
2023-04-30T00:39:18.465Z,1022.35
2023-04-30T00:40:18.607Z,1022.38
2023-04-30T00:41:18.769Z,1022.38
2023-04-30T00:42:18.935Z,1022.44
2023-04-30T00:43:19.116Z,1022.51
2023-04-30T00:44:19.329Z,1022.50
2023-04-30T00:45:19.487Z,1022.50
2023-04-30T00:46:19.743Z,1022.52
2023-04-30T00:47:19.880Z,1022.51
2023-04-30T00:48:20.042Z,1022.50
2023-04-30T00:49:20.217Z,1022.50
2023-04-30T00:50:20.388Z,1022.53
2023-04-30T00:51:20.568Z,1022.58
2023-04-30T00:52:20.753Z,1022.55
2023-04-30T00:53:20.933Z,1022.55
2023-04-30T00:54:21.119Z,1022.59
2023-04-30T00:55:21.311Z,1022.62
2023-04-30T00:56:21.478Z,1022.67
2023-04-30T00:57:21.676Z,1022.70
2023-04-30T00:58:21.808Z,1022.71
2023-04-30T00:59:21.988Z,1022.71
2023-04-30T01:00:22.186Z,1022.76
2023-04-30T01:01:22.381Z,1022.75
2023-04-30T01:02:22.676Z,1022.76
2023-04-30T01:03:22.851Z,1022.75
2023-04-30T01:04:22.901Z,1022.80
2023-04-30T01:05:23.055Z,1022.79
2023-04-30T01:06:23.290Z,1022.81
2023-04-30T01:07:23.436Z,1022.81
2023-04-30T01:08:23.604Z,1022.82
2023-04-30T01:09:23.784Z,1022.82
2023-04-30T01:10:23.962Z,1022.86
2023-04-30T01:11:24.136Z,1022.85
2023-04-30T01:12:24.329Z,1022.82
2023-04-30T01:13:24.510Z,1022.83
2023-04-30T01:14:24.685Z,1022.87
2023-04-30T01:15:24.852Z,1022.86
2023-04-30T01:16:25.092Z,1022.86
2023-04-30T01:17:25.218Z,1022.89
2023-04-30T01:18:25.488Z,1022.86
2023-04-30T01:19:25.567Z,1022.89
2023-04-30T01:20:25.725Z,1022.92
2023-04-30T01:21:25.890Z,1022.88
2023-04-30T01:22:26.083Z,1022.91
2023-04-30T01:23:26.247Z,1022.93
2023-04-30T01:24:26.457Z,1022.95
2023-04-30T01:25:26.634Z,1022.96
2023-04-30T01:26:26.826Z,1022.96
2023-04-30T01:27:26.967Z,1022.97
2023-04-30T01:28:27.166Z,1023.03
2023-04-30T01:29:27.377Z,1023.01
2023-04-30T01:30:27.475Z,1023.03
2023-04-30T01:31:27.692Z,1023.02
2023-04-30T01:32:27.875Z,1023.02
2023-04-30T01:33:28.005Z,1023.03
2023-04-30T01:34:28.167Z,1023.01
2023-04-30T01:35:28.330Z,1023.01
2023-04-30T01:36:28.512Z,1023.03
2023-04-30T01:37:28.691Z,1023.03
2023-04-30T01:38:28.859Z,1023.07
2023-04-30T01:39:29.036Z,1023.02
2023-04-30T01:40:29.204Z,1023.06
2023-04-30T01:41:29.375Z,1023.08
2023-04-30T01:42:29.600Z,1023.13
2023-04-30T01:43:29.726Z,1023.14
2023-04-30T01:44:29.898Z,1023.15
2023-04-30T01:45:30.079Z,1023.13
2023-04-30T01:46:30.337Z,1023.16
2023-04-30T01:47:30.517Z,1023.12
2023-04-30T01:48:30.604Z,1023.12
2023-04-30T01:49:30.786Z,1023.13
2023-04-30T01:50:30.965Z,1023.20
2023-04-30T01:51:31.126Z,1023.18
2023-04-30T01:52:31.307Z,1023.17
2023-04-30T01:53:31.470Z,1023.17
2023-04-30T01:54:31.650Z,1023.22
2023-04-30T01:55:31.822Z,1023.18
2023-04-30T01:56:31.985Z,1023.19
2023-04-30T01:57:32.199Z,1023.29
2023-04-30T01:58:32.323Z,1023.22
2023-04-30T01:59:32.496Z,1023.26
2023-04-30T02:00:32.665Z,1023.27
2023-04-30T02:01:32.940Z,1023.31
2023-04-30T02:02:33.089Z,1023.31
2023-04-30T02:03:33.263Z,1023.37
2023-04-30T02:04:33.355Z,1023.40
2023-04-30T02:05:33.550Z,1023.37
2023-04-30T02:06:33.724Z,1023.39
2023-04-30T02:07:33.897Z,1023.36
2023-04-30T02:08:34.059Z,1023.40
2023-04-30T02:09:34.217Z,1023.38
2023-04-30T02:10:34.393Z,1023.38
2023-04-30T02:11:34.553Z,1023.48
2023-04-30T02:12:34.742Z,1023.42
2023-04-30T02:13:34.909Z,1023.42
2023-04-30T02:14:35.122Z,1023.43
2023-04-30T02:15:35.243Z,1023.47
2023-04-30T02:16:35.500Z,1023.48
2023-04-30T02:17:35.612Z,1023.54
2023-04-30T02:18:35.756Z,1023.52
2023-04-30T02:19:35.934Z,1023.53
2023-04-30T02:20:36.138Z,1023.52
2023-04-30T02:21:36.263Z,1023.53
2023-04-30T02:22:36.490Z,1023.53
2023-04-30T02:23:36.607Z,1023.53
2023-04-30T02:24:36.792Z,1023.54
2023-04-30T02:25:36.963Z,1023.53
2023-04-30T02:26:37.110Z,1023.60
2023-04-30T02:27:37.303Z,1023.58
2023-04-30T02:28:37.471Z,1023.58
2023-04-30T02:29:37.634Z,1023.54
2023-04-30T02:30:37.789Z,1023.59
2023-04-30T02:31:38.018Z,1023.63
2023-04-30T02:32:38.224Z,1023.59
2023-04-30T02:33:38.307Z,1023.59
2023-04-30T02:34:38.465Z,1023.59
2023-04-30T02:35:38.641Z,1023.64
2023-04-30T02:36:38.814Z,1023.59
2023-04-30T02:37:39.018Z,1023.60
2023-04-30T02:38:39.182Z,1023.59
2023-04-30T02:39:39.358Z,1023.60
2023-04-30T02:40:39.516Z,1023.60
2023-04-30T02:41:39.700Z,1023.57
2023-04-30T02:42:39.872Z,1023.60
2023-04-30T02:43:40.055Z,1023.58
2023-04-30T02:44:40.236Z,1023.61
2023-04-30T02:45:40.454Z,1023.60
2023-04-30T02:46:40.579Z,1023.63
2023-04-30T02:47:40.814Z,1023.61
2023-04-30T02:48:40.930Z,1023.61
2023-04-30T02:49:41.117Z,1023.60
2023-04-30T02:50:41.286Z,1023.60
2023-04-30T02:51:41.444Z,1023.63
2023-04-30T02:52:41.614Z,1023.66
2023-04-30T02:53:41.782Z,1023.66
2023-04-30T02:54:41.939Z,1023.66
2023-04-30T02:55:42.114Z,1023.70
2023-04-30T02:56:42.281Z,1023.66
2023-04-30T02:57:42.468Z,1023.69
2023-04-30T02:58:42.630Z,1023.70
2023-04-30T02:59:42.798Z,1023.73
2023-04-30T03:00:42.965Z,1023.69
2023-04-30T03:01:43.209Z,1023.70
2023-04-30T03:02:43.490Z,1023.71
2023-04-30T03:03:43.586Z,1023.72
2023-04-30T03:04:43.656Z,1023.75
2023-04-30T03:05:43.831Z,1023.74
2023-04-30T03:06:44.149Z,1023.78
2023-04-30T03:07:44.195Z,1023.81
2023-04-30T03:08:44.359Z,1023.84
2023-04-30T03:09:44.528Z,1023.84
2023-04-30T03:10:44.696Z,1023.86
2023-04-30T03:11:44.873Z,1023.86
2023-04-30T03:12:45.049Z,1023.90
2023-04-30T03:13:45.227Z,1023.89
2023-04-30T03:14:45.378Z,1023.88
2023-04-30T03:15:45.566Z,1023.93
2023-04-30T03:16:45.744Z,1023.94
2023-04-30T03:17:46.435Z,1023.91
2023-04-30T03:18:46.075Z,1023.92
2023-04-30T03:19:46.272Z,1023.90
2023-04-30T03:20:46.449Z,1023.96
2023-04-30T03:21:46.650Z,1023.96
2023-04-30T03:22:46.796Z,1023.98
2023-04-30T03:23:47.003Z,1024.02
2023-04-30T03:24:47.154Z,1024.02
2023-04-30T03:25:47.342Z,1024.03
2023-04-30T03:26:47.508Z,1024.04
2023-04-30T03:27:47.776Z,1024.08
2023-04-30T03:28:47.869Z,1024.08
2023-04-30T03:29:48.010Z,1024.09
2023-04-30T03:30:48.168Z,1024.04
2023-04-30T03:31:48.539Z,1024.04
2023-04-30T03:32:48.556Z,1024.05
2023-04-30T03:33:48.797Z,1024.04
2023-04-30T03:34:48.904Z,1024.01
2023-04-30T03:35:49.081Z,1024.03
2023-04-30T03:36:49.274Z,1024.04
2023-04-30T03:37:49.461Z,1024.06
2023-04-30T03:38:49.589Z,1024.06
2023-04-30T03:39:49.770Z,1024.05
2023-04-30T03:40:49.977Z,1024.09
2023-04-30T03:41:50.144Z,1024.07
2023-04-30T03:42:51.438Z,1024.09
2023-04-30T03:43:50.509Z,1024.10
2023-04-30T03:44:50.684Z,1024.09
2023-04-30T03:45:50.922Z,1024.15
2023-04-30T03:46:51.029Z,1024.10
2023-04-30T03:47:51.226Z,1024.12
2023-04-30T03:48:51.349Z,1024.15
2023-04-30T03:49:51.571Z,1024.16
2023-04-30T03:50:51.682Z,1024.11
2023-04-30T03:51:51.828Z,1024.14
2023-04-30T03:52:52.038Z,1024.19
2023-04-30T03:53:52.212Z,1024.18
2023-04-30T03:54:52.381Z,1024.22
2023-04-30T03:55:52.581Z,1024.21
2023-04-30T03:56:52.738Z,1024.29
2023-04-30T03:57:52.954Z,1024.27
2023-04-30T03:58:53.110Z,1024.25
2023-04-30T03:59:53.486Z,1024.20
2023-04-30T04:00:53.434Z,1024.25
2023-04-30T04:01:53.625Z,1024.24
2023-04-30T04:02:53.844Z,1024.26
2023-04-30T04:03:53.968Z,1024.29
2023-04-30T04:04:54.105Z,1024.23
2023-04-30T04:05:54.325Z,1024.21
2023-04-30T04:06:55.392Z,1024.25
2023-04-30T04:07:54.618Z,1024.29
2023-04-30T04:08:54.799Z,1024.29
2023-04-30T04:09:55.160Z,1024.31
2023-04-30T04:10:55.114Z,1024.38
2023-04-30T04:11:55.313Z,1024.37
2023-04-30T04:12:55.487Z,1024.35
2023-04-30T04:13:55.645Z,1024.37
2023-04-30T04:14:55.806Z,1024.35
2023-04-30T04:15:56.012Z,1024.39
2023-04-30T04:16:56.167Z,1024.41
2023-04-30T04:17:56.440Z,1024.42
2023-04-30T04:18:56.517Z,1024.44
2023-04-30T04:19:56.756Z,1024.41
2023-04-30T04:20:56.867Z,1024.39
2023-04-30T04:21:57.038Z,1024.43
2023-04-30T04:22:57.375Z,1024.47
2023-04-30T04:23:57.400Z,1024.51
2023-04-30T04:24:57.569Z,1024.51
2023-04-30T04:25:57.740Z,1024.54
2023-04-30T04:26:57.917Z,1024.56
2023-04-30T04:27:58.111Z,1024.53
2023-04-30T04:28:58.294Z,1024.54
2023-04-30T04:29:58.436Z,1024.56
2023-04-30T04:30:58.610Z,1024.59
2023-04-30T04:31:58.828Z,1024.60
2023-04-30T04:32:59.016Z,1024.64
2023-04-30T04:33:59.152Z,1024.69
2023-04-30T04:34:59.325Z,1024.65
2023-04-30T04:35:59.551Z,1024.68
2023-04-30T04:36:59.694Z,1024.71
2023-04-30T04:37:59.881Z,1024.65
2023-04-30T04:39:00.072Z,1024.68
2023-04-30T04:40:00.220Z,1024.65
2023-04-30T04:41:00.408Z,1024.64
2023-04-30T04:42:00.598Z,1024.61
2023-04-30T04:43:00.806Z,1024.56
2023-04-30T04:44:00.951Z,1024.57
2023-04-30T04:45:01.116Z,1024.56
2023-04-30T04:46:01.317Z,1024.55
2023-04-30T04:47:01.485Z,1024.56
2023-04-30T04:48:01.775Z,1024.65
2023-04-30T04:49:01.847Z,1024.63
2023-04-30T04:50:02.027Z,1024.70
2023-04-30T04:51:02.237Z,1024.68
2023-04-30T04:52:02.412Z,1024.71
2023-04-30T04:53:02.574Z,1024.74
2023-04-30T04:54:02.707Z,1024.76
2023-04-30T04:55:02.884Z,1024.79
2023-04-30T04:56:03.056Z,1024.78
2023-04-30T04:57:03.232Z,1024.76
2023-04-30T04:58:03.425Z,1024.80
2023-04-30T04:59:03.600Z,1024.83
2023-04-30T05:00:03.779Z,1024.80
2023-04-30T05:01:03.943Z,1024.82
2023-04-30T05:02:04.144Z,1024.85
2023-04-30T05:03:04.396Z,1024.87
2023-04-30T05:04:04.463Z,1024.92
2023-04-30T05:05:04.638Z,1024.91
2023-04-30T05:06:04.921Z,1024.92
2023-04-30T05:07:04.993Z,1024.95
2023-04-30T05:08:05.184Z,1024.91
2023-04-30T05:09:05.363Z,1024.93
2023-04-30T05:10:05.543Z,1024.94
2023-04-30T05:11:05.726Z,1024.91
2023-04-30T05:12:05.908Z,1024.86
2023-04-30T05:13:06.113Z,1024.90
2023-04-30T05:14:06.255Z,1024.89
2023-04-30T05:15:06.434Z,1024.91
2023-04-30T05:16:06.666Z,1024.95
2023-04-30T05:17:06.822Z,1024.90
2023-04-30T05:18:07.029Z,1024.98
2023-04-30T05:19:07.144Z,1024.98
2023-04-30T05:20:07.513Z,1024.96
2023-04-30T05:21:07.499Z,1024.96
2023-04-30T05:22:07.682Z,1024.96
2023-04-30T05:23:07.849Z,1024.94
2023-04-30T05:24:08.010Z,1024.98
2023-04-30T05:25:08.251Z,1024.96
2023-04-30T05:26:08.387Z,1024.95
2023-04-30T05:27:08.551Z,1024.89
2023-04-30T05:28:08.726Z,1024.93
2023-04-30T05:29:08.899Z,1024.96
2023-04-30T05:30:09.080Z,1024.92
2023-04-30T05:31:09.237Z,1024.89
2023-04-30T05:32:09.521Z,1024.88
2023-04-30T05:33:09.689Z,1024.91
2023-04-30T05:34:09.740Z,1024.91
2023-04-30T05:35:09.906Z,1025.00
2023-04-30T05:36:10.088Z,1024.93
2023-04-30T05:37:10.270Z,1024.97
2023-04-30T05:38:10.452Z,1025.01
2023-04-30T05:39:10.598Z,1024.95
2023-04-30T05:41:17.169Z,1024.99
2023-04-30T05:42:17.346Z,1024.98
2023-04-30T05:43:17.521Z,1024.97
2023-04-30T05:44:17.760Z,1024.99
2023-04-30T05:45:17.874Z,1024.98
2023-04-30T05:46:18.047Z,1025.00
2023-04-30T05:47:18.211Z,1025.01
2023-04-30T05:48:18.393Z,1024.99
2023-04-30T05:49:18.541Z,1025.01
2023-04-30T05:50:18.734Z,1025.07
2023-04-30T05:51:18.871Z,1025.03
2023-04-30T05:52:19.031Z,1025.11
2023-04-30T05:53:19.213Z,1025.09
2023-04-30T05:54:19.371Z,1025.09
2023-04-30T05:55:19.545Z,1024.99
2023-04-30T05:56:19.709Z,1025.00
2023-04-30T05:57:19.873Z,1025.07
2023-04-30T05:58:20.055Z,1025.04
2023-04-30T05:59:20.224Z,1025.05
2023-04-30T06:00:20.403Z,1025.14
2023-04-30T06:01:20.554Z,1025.06
2023-04-30T06:02:20.823Z,1025.11
2023-04-30T06:03:20.957Z,1025.12
2023-04-30T06:04:21.079Z,1025.11
2023-04-30T06:05:21.371Z,1025.12
2023-04-30T06:06:21.508Z,1025.11
2023-04-30T06:07:21.624Z,1025.07
2023-04-30T06:08:21.816Z,1025.08
2023-04-30T06:09:21.968Z,1025.06
2023-04-30T06:10:22.143Z,1025.12
2023-04-30T06:11:22.302Z,1025.12
2023-04-30T06:12:22.470Z,1025.20
2023-04-30T06:13:22.644Z,1025.20
2023-04-30T06:14:22.821Z,1025.21
2023-04-30T06:15:22.992Z,1025.19
2023-04-30T06:16:23.169Z,1025.22
2023-04-30T06:17:23.349Z,1025.25
2023-04-30T06:18:23.471Z,1025.25
2023-04-30T06:19:23.621Z,1025.23
2023-04-30T06:20:23.804Z,1025.24
2023-04-30T06:21:23.984Z,1025.25
2023-04-30T06:22:24.159Z,1025.27
2023-04-30T06:23:24.355Z,1025.26
2023-04-30T06:24:24.512Z,1025.20
2023-04-30T06:25:24.686Z,1025.21
2023-04-30T06:26:24.880Z,1025.23
2023-04-30T06:27:25.061Z,1025.23
2023-04-30T06:28:25.247Z,1025.23
2023-04-30T06:29:25.398Z,1025.24
2023-04-30T06:30:25.587Z,1025.25
2023-04-30T06:31:25.813Z,1025.30
2023-04-30T06:32:25.985Z,1025.28
2023-04-30T06:33:26.160Z,1025.29
2023-04-30T06:34:26.336Z,1025.32
2023-04-30T06:35:26.530Z,1025.25
2023-04-30T06:36:26.682Z,1025.29
2023-04-30T06:37:26.832Z,1025.31
2023-04-30T06:38:27.034Z,1025.27
2023-04-30T06:39:27.182Z,1025.25
2023-04-30T06:40:27.365Z,1025.29
2023-04-30T06:41:27.561Z,1025.32
2023-04-30T06:42:27.707Z,1025.34
2023-04-30T06:43:27.903Z,1025.26
2023-04-30T06:44:28.064Z,1025.24
2023-04-30T06:45:28.200Z,1025.33
2023-04-30T06:46:28.404Z,1025.28
2023-04-30T06:47:28.602Z,1025.33
2023-04-30T06:48:28.732Z,1025.28
2023-04-30T06:49:28.897Z,1025.26
2023-04-30T06:50:29.084Z,1025.26
2023-04-30T06:51:29.265Z,1025.30
2023-04-30T06:52:29.468Z,1025.28
2023-04-30T06:53:29.629Z,1025.29
2023-04-30T06:54:29.862Z,1025.23
2023-04-30T06:55:29.979Z,1025.21
2023-04-30T06:56:30.157Z,1025.26
2023-04-30T06:57:30.469Z,1025.26
2023-04-30T06:58:30.505Z,1025.24
2023-04-30T06:59:30.667Z,1025.18
2023-04-30T07:00:30.847Z,1025.20
2023-04-30T07:01:31.015Z,1025.25
2023-04-30T07:02:31.273Z,1025.23
2023-04-30T07:03:31.433Z,1025.14
2023-04-30T07:04:31.526Z,1025.21
2023-04-30T07:05:31.710Z,1025.22
2023-04-30T07:06:31.861Z,1025.24
2023-04-30T07:07:32.044Z,1025.27
2023-04-30T07:08:32.195Z,1025.20
2023-04-30T07:09:32.364Z,1025.17
2023-04-30T07:10:32.530Z,1025.32
2023-04-30T07:11:32.727Z,1025.30
2023-04-30T07:12:32.931Z,1025.32
2023-04-30T07:13:33.076Z,1025.35
2023-04-30T07:14:33.256Z,1025.30
2023-04-30T07:15:33.431Z,1025.30
2023-04-30T07:16:33.811Z,1025.27
2023-04-30T07:17:33.833Z,1025.29
2023-04-30T07:18:33.954Z,1025.27
2023-04-30T07:19:34.111Z,1025.27
2023-04-30T07:20:34.299Z,1025.23
2023-04-30T07:21:34.473Z,1025.18
2023-04-30T07:22:34.674Z,1025.27
2023-04-30T07:23:34.845Z,1025.24
2023-04-30T07:24:35.028Z,1025.24
2023-04-30T07:25:35.235Z,1025.26
2023-04-30T07:26:35.390Z,1025.26
2023-04-30T07:27:35.586Z,1025.28
2023-04-30T07:28:35.744Z,1025.23
2023-04-30T07:29:35.923Z,1025.18
2023-04-30T07:30:36.153Z,1025.15
2023-04-30T07:31:36.302Z,1025.18
2023-04-30T07:32:36.515Z,1025.16
2023-04-30T07:33:36.641Z,1025.22
2023-04-30T07:34:36.826Z,1025.24
2023-04-30T07:35:37.009Z,1025.18
2023-04-30T07:36:37.199Z,1025.15
2023-04-30T07:37:38.558Z,1025.14
2023-04-30T07:38:37.561Z,1025.16
2023-04-30T07:39:37.711Z,1025.12
2023-04-30T07:40:37.947Z,1025.19
2023-04-30T07:41:38.094Z,1025.18
2023-04-30T07:42:38.238Z,1025.21
2023-04-30T07:43:38.412Z,1025.25
2023-04-30T07:44:38.596Z,1025.26
2023-04-30T07:45:38.794Z,1025.11
2023-04-30T07:46:39.064Z,1025.25
2023-04-30T07:47:39.216Z,1025.19
2023-04-30T07:48:39.340Z,1025.25
2023-04-30T07:49:39.505Z,1025.23
2023-04-30T07:50:39.689Z,1025.22
2023-04-30T07:51:39.931Z,1025.17
2023-04-30T07:52:40.029Z,1025.23
2023-04-30T07:53:40.203Z,1025.21
2023-04-30T07:54:40.380Z,1025.25
2023-04-30T07:55:40.565Z,1025.12
2023-04-30T07:56:40.768Z,1025.23
2023-04-30T07:57:40.972Z,1025.23
2023-04-30T07:58:41.123Z,1025.18
2023-04-30T07:59:41.289Z,1025.17
2023-04-30T08:00:41.466Z,1025.20
2023-04-30T08:01:41.664Z,1025.13
2023-04-30T08:02:41.902Z,1025.14
2023-04-30T08:03:42.128Z,1025.16
2023-04-30T08:04:42.172Z,1025.19
2023-04-30T08:05:42.364Z,1025.12
2023-04-30T08:06:42.686Z,1025.23
2023-04-30T08:07:42.722Z,1025.23
2023-04-30T08:08:42.883Z,1025.16
2023-04-30T08:09:43.064Z,1025.18
2023-04-30T08:10:43.251Z,1025.22
2023-04-30T08:11:43.427Z,1025.26
2023-04-30T08:12:43.601Z,1025.25
2023-04-30T08:13:43.743Z,1025.27
2023-04-30T08:14:43.940Z,1025.30
2023-04-30T08:15:44.103Z,1025.24
2023-04-30T08:16:44.333Z,1025.23
2023-04-30T08:17:44.481Z,1025.26
2023-04-30T08:18:44.618Z,1025.24
2023-04-30T08:19:44.776Z,1025.28
2023-04-30T08:20:44.974Z,1025.33
2023-04-30T08:21:45.146Z,1025.35
2023-04-30T08:22:45.384Z,1025.29
2023-04-30T08:23:45.515Z,1025.27
2023-04-30T08:24:45.704Z,1025.35
2023-04-30T08:25:45.876Z,1025.38
2023-04-30T08:26:46.075Z,1025.36
2023-04-30T08:27:46.270Z,1025.31
2023-04-30T08:28:46.434Z,1025.34
2023-04-30T08:29:46.574Z,1025.34
2023-04-30T08:30:46.788Z,1025.30
2023-04-30T08:31:47.038Z,1025.32
2023-04-30T08:32:47.173Z,1025.37
2023-04-30T08:33:47.285Z,1025.35
2023-04-30T08:34:47.458Z,1025.39
2023-04-30T08:35:47.625Z,1025.36
2023-04-30T08:36:47.813Z,1025.32
2023-04-30T08:37:47.989Z,1025.27
2023-04-30T08:38:48.155Z,1025.30
2023-04-30T08:39:48.333Z,1025.29
2023-04-30T08:40:51.428Z,1025.27
2023-04-30T08:41:48.667Z,1025.23
2023-04-30T08:42:48.910Z,1025.23
2023-04-30T08:43:49.014Z,1025.24
2023-04-30T08:44:49.159Z,1025.26
2023-04-30T08:45:49.364Z,1025.24
2023-04-30T08:46:49.528Z,1025.29
2023-04-30T08:47:49.765Z,1025.25
2023-04-30T08:48:49.913Z,1025.25
2023-04-30T08:49:50.077Z,1025.27
2023-04-30T08:50:50.248Z,1025.12
2023-04-30T08:51:50.405Z,1025.17
2023-04-30T08:52:50.613Z,1025.17
2023-04-30T08:53:50.765Z,1025.20
2023-04-30T08:54:51.014Z,1025.27
2023-04-30T08:55:51.113Z,1025.26
2023-04-30T08:56:51.283Z,1025.27
2023-04-30T08:57:51.467Z,1025.21
2023-04-30T08:58:51.644Z,1025.24
2023-04-30T08:59:51.824Z,1025.23
2023-04-30T09:00:51.984Z,1025.18
2023-04-30T09:01:53.844Z,1025.20
2023-04-30T09:02:52.429Z,1025.18
2023-04-30T09:03:52.596Z,1025.26
2023-04-30T09:04:52.680Z,1025.26
2023-04-30T09:05:52.882Z,1025.31
2023-04-30T09:06:53.059Z,1025.23
2023-04-30T09:08:03.124Z,1025.17
2023-04-30T09:08:54.412Z,1025.20
2023-04-30T09:09:53.969Z,1025.19
2023-04-30T09:10:53.730Z,1025.18
2023-04-30T09:11:53.907Z,1025.19
2023-04-30T09:12:54.115Z,1025.20
2023-04-30T09:13:54.283Z,1025.24
2023-04-30T09:14:54.454Z,1025.22
2023-04-30T09:15:54.646Z,1025.16
2023-04-30T09:16:54.816Z,1025.17
2023-04-30T09:17:55.036Z,1025.22
2023-04-30T09:18:55.165Z,1025.15
2023-04-30T09:19:55.567Z,1025.15
2023-04-30T09:20:55.532Z,1025.16
2023-04-30T09:21:55.718Z,1025.15
2023-04-30T09:22:55.860Z,1025.13
2023-04-30T09:23:56.020Z,1025.15
2023-04-30T09:24:56.209Z,1025.19
2023-04-30T09:25:56.356Z,1025.24
2023-04-30T09:26:56.560Z,1025.23
2023-04-30T09:27:56.722Z,1025.23
2023-04-30T09:28:56.867Z,1025.23
2023-04-30T09:29:57.155Z,1025.14
2023-04-30T09:30:57.242Z,1025.16
2023-04-30T09:31:57.483Z,1025.17
2023-04-30T09:32:57.659Z,1025.28
2023-04-30T09:33:57.766Z,1025.21
2023-04-30T09:34:57.939Z,1025.18
2023-04-30T09:35:58.121Z,1025.11
2023-04-30T09:36:58.321Z,1025.16
2023-04-30T09:37:58.507Z,1025.14
2023-04-30T09:38:58.669Z,1025.11
2023-04-30T09:39:58.857Z,1025.17
2023-04-30T09:40:59.034Z,1025.15
2023-04-30T09:41:59.228Z,1025.17
2023-04-30T09:42:59.432Z,1025.16
2023-04-30T09:43:59.608Z,1025.18
2023-04-30T09:44:59.770Z,1025.12
2023-04-30T09:46:00.067Z,1025.10
2023-04-30T09:47:00.300Z,1025.14
2023-04-30T09:48:09.231Z,1025.21
2023-04-30T09:49:01.469Z,1025.28
2023-04-30T09:50:00.744Z,1025.21
2023-04-30T09:51:00.829Z,1025.23
2023-04-30T09:52:01.070Z,1025.21
2023-04-30T09:53:01.178Z,1025.17
2023-04-30T09:54:01.353Z,1025.16
2023-04-30T09:55:01.531Z,1025.12
2023-04-30T09:56:01.724Z,1025.10
2023-04-30T09:57:02.168Z,1025.16
2023-04-30T09:58:02.083Z,1025.09
2023-04-30T09:59:02.236Z,1025.09
2023-04-30T10:00:02.435Z,1025.08
2023-04-30T10:01:02.593Z,1025.12
2023-04-30T10:02:02.787Z,1025.08
2023-04-30T10:03:02.986Z,1025.09
2023-04-30T10:04:03.153Z,1025.00
2023-04-30T10:05:03.324Z,1025.05
2023-04-30T10:06:03.605Z,1025.01
2023-04-30T10:07:03.656Z,1024.95
2023-04-30T10:08:03.871Z,1025.01
2023-04-30T10:09:04.013Z,1024.97
2023-04-30T10:10:04.231Z,1025.03
2023-04-30T10:11:04.355Z,1024.98
2023-04-30T10:12:04.548Z,1025.04
2023-04-30T10:13:07.172Z,1024.98
2023-04-30T10:14:04.896Z,1024.96
2023-04-30T10:15:05.050Z,1024.98
2023-04-30T10:16:05.238Z,1024.90
2023-04-30T10:17:05.366Z,1024.96
2023-04-30T10:18:05.626Z,1025.00
2023-04-30T10:19:05.746Z,1025.03
2023-04-30T10:20:05.933Z,1025.02
2023-04-30T10:21:06.184Z,1025.05
2023-04-30T10:22:06.289Z,1025.02
2023-04-30T10:23:06.481Z,1025.00
2023-04-30T10:24:06.668Z,1024.96
2023-04-30T10:25:06.840Z,1025.10
2023-04-30T10:26:07.018Z,1025.06
2023-04-30T10:27:07.217Z,1025.06
2023-04-30T10:28:07.409Z,1025.08
2023-04-30T10:29:07.560Z,1025.13
2023-04-30T10:30:07.760Z,1025.06
2023-04-30T10:31:07.921Z,1024.99
2023-04-30T10:32:08.136Z,1024.95
2023-04-30T10:33:08.385Z,1024.94
2023-04-30T10:34:08.461Z,1025.02
2023-04-30T10:35:08.649Z,1025.05
2023-04-30T10:36:08.846Z,1025.07
2023-04-30T10:37:09.028Z,1025.03
2023-04-30T10:38:09.222Z,1025.04
2023-04-30T10:39:09.381Z,1025.02
2023-04-30T10:40:09.545Z,1025.05
2023-04-30T10:41:09.743Z,1025.06
2023-04-30T10:42:09.873Z,1024.95
2023-04-30T10:43:10.066Z,1024.93
2023-04-30T10:44:10.236Z,1024.98
2023-04-30T10:45:10.389Z,1024.97
2023-04-30T10:46:10.619Z,1025.00
2023-04-30T10:47:10.700Z,1024.99
2023-04-30T10:48:10.994Z,1025.00
2023-04-30T10:49:11.073Z,1025.03
2023-04-30T10:50:11.264Z,1024.98
2023-04-30T10:51:11.416Z,1024.95
2023-04-30T10:52:11.729Z,1025.02
2023-04-30T10:53:11.764Z,1024.97
2023-04-30T10:54:11.955Z,1024.93
2023-04-30T10:55:12.128Z,1024.94
2023-04-30T10:56:12.351Z,1024.93
2023-04-30T10:57:12.608Z,1024.91
2023-04-30T10:58:12.640Z,1024.92
2023-04-30T10:59:12.817Z,1024.95
2023-04-30T11:00:13.126Z,1024.93
2023-04-30T11:01:13.203Z,1024.93
2023-04-30T11:02:13.391Z,1024.87
2023-04-30T11:03:13.564Z,1024.88
2023-04-30T11:04:13.722Z,1024.93
2023-04-30T11:05:14.019Z,1024.87
2023-04-30T11:06:14.123Z,1024.84
2023-04-30T11:07:14.312Z,1024.86
2023-04-30T11:08:14.452Z,1024.87
2023-04-30T11:09:14.653Z,1024.86
2023-04-30T11:10:14.882Z,1024.86
2023-04-30T11:11:15.027Z,1024.86
2023-04-30T11:12:15.220Z,1024.83
2023-04-30T11:13:15.361Z,1024.88
2023-04-30T11:14:15.619Z,1024.86
2023-04-30T11:15:15.705Z,1024.88
2023-04-30T11:16:15.945Z,1024.86
2023-04-30T11:17:16.090Z,1024.85
2023-04-30T11:18:16.255Z,1024.83
2023-04-30T11:19:16.418Z,1024.83
2023-04-30T11:20:16.588Z,1024.81
2023-04-30T11:21:16.752Z,1024.76
2023-04-30T11:22:16.931Z,1024.88
2023-04-30T11:23:22.133Z,1024.79
2023-04-30T11:24:18.239Z,1024.77
2023-04-30T11:25:17.421Z,1024.85
2023-04-30T11:26:17.580Z,1024.78
2023-04-30T11:27:17.771Z,1024.78
2023-04-30T11:28:17.939Z,1024.78
2023-04-30T11:29:18.156Z,1024.77
2023-04-30T11:30:18.260Z,1024.76
2023-04-30T11:31:18.471Z,1024.74
2023-04-30T11:32:18.669Z,1024.72
2023-04-30T11:33:18.791Z,1024.74
2023-04-30T11:34:18.968Z,1024.77
2023-04-30T11:35:19.137Z,1024.79
2023-04-30T11:36:19.312Z,1024.70
2023-04-30T11:37:19.521Z,1024.72
2023-04-30T11:38:19.673Z,1024.68
2023-04-30T11:39:19.854Z,1024.66
2023-04-30T11:40:20.032Z,1024.66
2023-04-30T11:41:20.258Z,1024.64
2023-04-30T11:42:20.429Z,1024.64
2023-04-30T11:43:20.579Z,1024.69
2023-04-30T11:44:20.766Z,1024.66
2023-04-30T11:45:21.164Z,1024.70
2023-04-30T11:46:21.146Z,1024.73
2023-04-30T11:47:21.379Z,1024.72
2023-04-30T11:48:21.494Z,1024.70
2023-04-30T11:49:21.657Z,1024.72
2023-04-30T11:50:21.843Z,1024.73
2023-04-30T11:51:22.250Z,1024.70
2023-04-30T11:52:22.213Z,1024.66
2023-04-30T11:53:22.362Z,1024.69
2023-04-30T11:54:22.523Z,1024.58
2023-04-30T11:55:22.711Z,1024.47
2023-04-30T11:56:22.864Z,1024.62
2023-04-30T11:57:23.033Z,1024.65
2023-04-30T11:58:23.245Z,1024.64
2023-04-30T11:59:23.368Z,1024.59
2023-04-30T12:00:23.558Z,1024.59
2023-04-30T12:01:23.702Z,1024.57
2023-04-30T12:02:24.016Z,1024.57
2023-04-30T12:03:24.075Z,1024.58
2023-04-30T12:04:24.257Z,1024.53
2023-04-30T12:05:24.385Z,1024.51
2023-04-30T12:06:24.659Z,1024.51
2023-04-30T12:07:24.761Z,1024.47
2023-04-30T12:08:24.932Z,1024.50